Time;durP1;ratioP1;P1;durP2;ratioP2;P2;SDS_P1;SDS_P2;PMS_P1;PMS_P2;Temp;Humidity;BMP_temperature;BMP_pressure;BME280_temperature;BME280_humidity;BME280_pressure;Samples;Min_cycle;Max_cycle;Signal;HPM_P1;HPM_P2
2023/05/10 00:00:00;;;;;;;9.98;5.50;;;20.90;72.70;;;;;;6244593;23;20094;-75
2023/05/10 00:02:26;;;;;;;10.88;6.07;;;20.90;72.40;;;;;;6244695;23;20016;-74
2023/05/10 00:04:52;;;;;;;8.25;5.72;;;20.80;72.40;;;;;;6244571;22;20008;-75
2023/05/10 00:07:18;;;;;;;7.93;5.65;;;20.80;72.60;;;;;;6243530;23;20003;-74
2023/05/10 00:09:43;;;;;;;9.85;5.82;;;20.80;72.50;;;;;;6244018;23;20004;-74
2023/05/10 00:12:09;;;;;;;11.73;7.00;;;20.80;72.70;;;;;;6244759;23;20062;-73
2023/05/10 00:14:35;;;;;;;7.95;5.70;;;20.80;72.80;;;;;;6244787;23;20474;-74
2023/05/10 00:17:01;;;;;;;10.95;6.32;;;20.80;73.00;;;;;;6244838;22;20035;-73
2023/05/10 00:19:26;;;;;;;8.25;5.97;;;20.80;73.10;;;;;;6244218;23;20004;-74
2023/05/10 00:21:52;;;;;;;10.30;6.05;;;20.80;73.20;;;;;;6246452;23;20012;-73
2023/05/10 00:24:18;;;;;;;8.55;5.88;;;20.80;73.00;;;;;;6246509;22;20000;-74
2023/05/10 00:26:43;;;;;;;8.65;6.22;;;20.80;72.70;;;;;;6246061;23;20011;-74
2023/05/10 00:29:09;;;;;;;12.85;5.82;;;20.80;72.60;;;;;;6246104;23;20028;-74
2023/05/10 00:31:35;;;;;;;8.15;5.65;;;20.80;72.80;;;;;;6246295;23;20431;-74
2023/05/10 00:34:00;;;;;;;12.30;6.20;;;20.70;72.90;;;;;;6246308;23;20027;-74
2023/05/10 00:36:27;;;;;;;9.93;5.55;;;20.70;72.90;;;;;;6245756;23;20054;-75
2023/05/10 00:38:53;;;;;;;9.02;6.03;;;20.70;73.00;;;;;;6246256;23;20012;-74
2023/05/10 00:41:18;;;;;;;8.43;5.88;;;20.70;72.70;;;;;;6246542;23;20088;-73
2023/05/10 00:43:44;;;;;;;6.50;4.75;;;20.70;72.70;;;;;;6245805;23;19996;-74
2023/05/10 00:46:10;;;;;;;8.55;6.10;;;20.70;72.70;;;;;;6246035;23;20004;-73
2023/05/10 00:48:36;;;;;;;8.95;6.00;;;20.70;72.60;;;;;;6246183;23;20425;-75
2023/05/10 00:51:02;;;;;;;8.02;5.63;;;20.70;72.70;;;;;;6246192;23;20012;-74
2023/05/10 00:53:30;;;;;;;8.48;5.32;;;20.60;72.60;;;;;;6246215;22;20326;-73
2023/05/10 00:55:56;;;;;;;6.80;5.38;;;20.60;72.60;;;;;;6245559;22;20055;-75
2023/05/10 00:58:23;;;;;;;7.00;5.07;;;20.60;72.40;;;;;;6246001;23;20008;-74
2023/05/10 01:00:50;;;;;;;7.18;5.22;;;20.60;72.20;;;;;;6245262;23;20091;-72
2023/05/10 01:03:16;;;;;;;6.97;5.15;;;20.60;71.90;;;;;;6245884;22;20036;-74
2023/05/10 01:05:42;;;;;;;7.57;5.25;;;20.60;71.50;;;;;;6245950;23;20455;-73
2023/05/10 01:08:08;;;;;;;10.55;5.40;;;20.60;71.60;;;;;;6246577;23;19996;-74
2023/05/10 01:10:34;;;;;;;7.57;5.47;;;20.60;71.50;;;;;;6247025;23;20008;-74
2023/05/10 01:13:00;;;;;;;7.80;5.38;;;20.60;71.30;;;;;;6247409;22;20000;-73
2023/05/10 01:15:26;;;;;;;8.18;5.93;;;20.60;71.30;;;;;;6245873;23;20038;-73
2023/05/10 01:17:53;;;;;;;8.93;5.78;;;20.60;71.40;;;;;;6246354;22;20521;-74
2023/05/10 01:20:19;;;;;;;9.80;5.90;;;20.60;71.50;;;;;;6246171;22;20035;-74
2023/05/10 01:23:10;;;;;;;9.77;5.63;;;20.60;71.40;;;;;;6243952;23;20004;-73
2023/05/10 01:25:39;;;;;;;8.20;6.00;;;20.60;72.40;;;;;;6245879;22;20414;-74
2023/05/10 01:28:35;;;;;;;8.98;6.07;;;20.50;72.50;;;;;;6245561;23;19996;-74
2023/05/10 01:31:30;;;;;;;8.57;6.20;;;20.50;72.40;;;;;;6245358;23;20004;-73
2023/05/10 01:34:01;;;;;;;8.30;6.03;;;20.50;72.20;;;;;;6163927;22;20478;-73
2023/05/10 01:36:38;;;;;;;8.15;6.13;;;20.50;71.50;;;;;;6244056;23;20012;-75
2023/05/10 01:39:09;;;;;;;8.48;5.65;;;20.50;72.30;;;;;;6245759;22;20000;-74
2023/05/10 01:41:44;;;;;;;9.43;5.88;;;20.50;72.60;;;;;;6245735;22;20020;-74
2023/05/10 01:44:50;;;;;;;8.52;6.07;;;20.50;72.60;;;;;;6245509;23;20007;-74
2023/05/10 01:47:23;;;;;;;9.90;6.18;;;20.50;72.70;;;;;;6232904;22;20012;-74
2023/05/10 01:49:56;;;;;;;8.65;6.18;;;20.50;71.70;;;;;;6245230;22;20308;-74
2023/05/10 01:52:33;;;;;;;10.75;6.63;;;20.50;71.90;;;;;;6245857;22;20061;-74
2023/05/10 01:55:06;;;;;;;10.43;6.72;;;20.50;72.00;;;;;;6245517;22;20004;-73
2023/05/10 01:57:37;;;;;;;9.63;6.18;;;20.50;72.30;;;;;;6245719;22;20011;-73
2023/05/10 02:00:04;;;;;;;10.90;6.70;;;20.50;72.10;;;;;;6244891;23;20008;-74
2023/05/10 02:02:35;;;;;;;8.77;6.20;;;20.50;72.50;;;;;;6245632;23;20432;-75
2023/05/10 02:05:05;;;;;;;8.20;5.90;;;20.50;72.30;;;;;;6245512;22;20110;-73
2023/05/10 02:07:32;;;;;;;14.68;6.72;;;20.50;72.20;;;;;;6243595;23;20430;-74
2023/05/10 02:09:59;;;;;;;7.85;6.10;;;20.50;72.10;;;;;;6245085;23;20008;-74
2023/05/10 02:12:25;;;;;;;9.25;6.13;;;20.40;72.30;;;;;;6243753;23;20519;-74
2023/05/10 02:14:52;;;;;;;10.85;6.40;;;20.40;72.60;;;;;;6245310;22;20302;-74
2023/05/10 02:17:19;;;;;;;9.50;6.55;;;20.40;72.50;;;;;;6245212;22;20031;-74
2023/05/10 02:19:46;;;;;;;9.15;7.03;;;20.40;72.40;;;;;;6245047;23;20328;-74
2023/05/10 02:22:12;;;;;;;8.18;6.35;;;20.40;72.50;;;;;;6243254;23;20020;-73
2023/05/10 02:24:39;;;;;;;10.95;6.82;;;20.40;72.90;;;;;;6245223;22;20054;-72
2023/05/10 02:27:06;;;;;;;9.38;6.05;;;20.30;72.60;;;;;;6244800;22;19996;-73
2023/05/10 02:29:33;;;;;;;8.93;6.18;;;20.30;72.80;;;;;;6244841;22;20015;-76
2023/05/10 02:32:00;;;;;;;8.70;6.82;;;20.30;72.70;;;;;;6244660;22;20326;-75
2023/05/10 02:34:27;;;;;;;9.13;6.55;;;20.30;73.20;;;;;;6245256;22;20094;-75
2023/05/10 02:36:54;;;;;;;9.00;6.55;;;20.30;73.10;;;;;;6244933;22;20003;-74
2023/05/10 02:39:21;;;;;;;8.30;6.68;;;20.30;73.30;;;;;;6244644;22;20004;-74
2023/05/10 02:41:48;;;;;;;8.88;7.00;;;20.30;73.20;;;;;;6244685;22;20008;-74
2023/05/10 02:44:16;;;;;;;11.15;6.95;;;20.30;73.70;;;;;;6242751;22;20438;-74
2023/05/10 02:46:43;;;;;;;9.00;6.53;;;20.30;73.60;;;;;;6244963;22;20004;-73
2023/05/10 02:49:09;;;;;;;8.30;5.93;;;20.30;73.70;;;;;;6244413;23;20000;-75
2023/05/10 02:51:40;;;;;;;9.45;6.80;;;20.30;73.90;;;;;;6244796;22;20088;-73
2023/05/10 02:54:18;;;;;;;9.98;6.15;;;20.30;73.90;;;;;;6245017;22;20000;-74
2023/05/10 02:56:50;;;;;;;10.95;6.43;;;20.30;74.00;;;;;;6245015;22;20008;-74
2023/05/10 02:59:16;;;;;;;11.93;7.35;;;20.30;74.00;;;;;;6242542;23;20404;-74
2023/05/10 03:01:41;;;;;;;9.00;7.00;;;20.30;74.10;;;;;;6242865;23;20020;-72
2023/05/10 03:04:07;;;;;;;8.30;6.25;;;20.30;73.90;;;;;;6244765;23;20000;-73
2023/05/10 03:06:33;;;;;;;9.80;6.50;;;20.30;74.10;;;;;;6244820;23;20411;-74
2023/05/10 03:08:59;;;;;;;9.35;6.40;;;20.30;74.00;;;;;;6245352;22;20082;-74
2023/05/10 03:11:52;;;;;;;11.00;6.40;;;20.30;73.80;;;;;;6244833;22;20437;-74
2023/05/10 03:14:44;;;;;;;9.65;6.68;;;20.30;74.70;;;;;;6244693;22;20430;-74
2023/05/10 03:17:32;;;;;;;8.30;6.35;;;20.30;74.50;;;;;;6245065;22;20024;-73
2023/05/10 03:20:03;;;;;;;7.90;5.95;;;20.30;73.80;;;;;;6242387;23;20040;-73
2023/05/10 03:22:34;;;;;;;9.13;5.70;;;20.30;73.60;;;;;;6244777;22;20008;-74
2023/05/10 03:25:05;;;;;;;9.15;6.07;;;20.30;73.50;;;;;;6245057;22;20147;-73
2023/05/10 03:27:32;;;;;;;9.18;6.50;;;20.30;73.50;;;;;;6244807;22;20009;-74
2023/05/10 03:29:58;;;;;;;8.20;6.63;;;20.40;73.50;;;;;;6244468;22;20336;-73
2023/05/10 03:32:24;;;;;;;8.68;6.68;;;20.30;73.80;;;;;;6244627;22;20000;-73
2023/05/10 03:34:50;;;;;;;10.15;6.43;;;20.30;73.90;;;;;;6244839;22;20440;-74
2023/05/10 03:37:16;;;;;;;11.63;7.28;;;20.30;74.30;;;;;;6244861;23;20388;-74
2023/05/10 03:39:41;;;;;;;11.50;7.03;;;20.30;74.50;;;;;;6244868;23;20008;-75
2023/05/10 03:42:07;;;;;;;12.07;7.20;;;20.30;74.80;;;;;;6245078;23;20406;-74
2023/05/10 03:44:33;;;;;;;12.63;7.10;;;20.30;75.20;;;;;;6244876;23;20004;-74
2023/05/10 03:46:59;;;;;;;9.60;6.88;;;20.20;75.20;;;;;;6245109;23;20000;-75
2023/05/10 03:49:25;;;;;;;9.15;7.03;;;20.10;75.80;;;;;;6244994;22;20004;-74
2023/05/10 03:51:50;;;;;;;7.95;6.05;;;20.10;76.00;;;;;;6242666;23;20345;-74
2023/05/10 03:54:16;;;;;;;9.45;5.93;;;20.10;75.90;;;;;;6244333;23;20130;-73
2023/05/10 03:56:41;;;;;;;9.30;5.85;;;20.10;75.40;;;;;;6244703;23;20412;-73
2023/05/10 03:59:08;;;;;;;8.27;5.63;;;20.10;75.00;;;;;;6245687;23;20414;-73
2023/05/10 04:01:34;;;;;;;8.98;5.78;;;20.20;74.90;;;;;;6246201;23;20023;-74
2023/05/10 04:04:00;;;;;;;9.65;6.65;;;20.20;74.70;;;;;;6246155;22;20008;-74
2023/05/10 04:06:26;;;;;;;9.30;5.93;;;20.20;74.80;;;;;;6246030;23;20000;-74
2023/05/10 04:08:51;;;;;;;8.68;6.18;;;20.20;74.70;;;;;;6247442;23;20027;-74
2023/05/10 04:11:17;;;;;;;8.23;6.22;;;20.20;74.80;;;;;;6246372;23;20009;-73
2023/05/10 04:13:43;;;;;;;9.25;6.75;;;20.20;75.00;;;;;;6246556;23;20105;-74
2023/05/10 04:16:09;;;;;;;9.45;6.13;;;20.20;75.20;;;;;;6247180;23;20008;-74
2023/05/10 04:18:35;;;;;;;10.13;6.47;;;20.20;75.20;;;;;;6246570;23;20006;-74
2023/05/10 04:21:00;;;;;;;8.80;7.15;;;20.20;75.30;;;;;;6246111;23;20016;-74
2023/05/10 04:23:27;;;;;;;9.32;6.60;;;20.20;75.50;;;;;;6246320;23;20007;-74
2023/05/10 04:25:58;;;;;;;10.30;6.68;;;20.20;75.30;;;;;;6246427;22;20384;-73
2023/05/10 04:28:24;;;;;;;10.48;7.00;;;20.10;75.30;;;;;;6246586;22;20027;-73
2023/05/10 04:30:49;;;;;;;9.75;6.35;;;20.10;75.90;;;;;;6246018;23;20000;-72
2023/05/10 04:33:15;;;;;;;9.02;6.28;;;20.10;75.80;;;;;;6246146;23;20026;-73
2023/05/10 04:35:41;;;;;;;8.93;7.25;;;20.20;76.00;;;;;;6246374;23;20011;-75
2023/05/10 04:38:07;;;;;;;9.88;6.70;;;20.20;76.10;;;;;;6246626;23;20092;-74
2023/05/10 04:40:32;;;;;;;13.98;7.30;;;20.20;76.20;;;;;;6246151;23;20016;-73
2023/05/10 04:42:58;;;;;;;10.88;6.90;;;20.20;76.20;;;;;;6245789;23;20010;-74
2023/05/10 04:45:24;;;;;;;10.85;7.90;;;20.20;76.30;;;;;;6246187;23;20000;-74
2023/05/10 04:47:49;;;;;;;10.43;7.07;;;20.20;76.20;;;;;;6246408;23;20003;-74
2023/05/10 04:50:15;;;;;;;11.75;7.20;;;20.20;76.50;;;;;;6246936;23;20485;-73
2023/05/10 04:52:41;;;;;;;11.00;6.53;;;20.20;76.50;;;;;;6246097;23;20004;-75
2023/05/10 04:55:09;;;;;;;8.48;7.03;;;20.20;76.50;;;;;;6246211;23;20036;-75
2023/05/10 04:57:34;;;;;;;10.82;6.88;;;20.20;76.40;;;;;;6246104;22;20004;-74
2023/05/10 05:00:00;;;;;;;11.82;7.38;;;20.20;76.00;;;;;;6246625;23;20463;-73
2023/05/10 23:03:20;;;;;;;27.33;5.18;;;18.50;85.40;;;;;;6288079;22;20034;-79
2023/05/10 23:05:46;;;;;;;29.88;7.13;;;18.50;85.30;;;;;;6306902;22;20007;-78
2023/05/10 23:08:12;;;;;;;25.67;5.50;;;18.50;85.30;;;;;;6307036;22;20030;-78
2023/05/10 23:10:38;;;;;;;29.70;6.20;;;18.50;85.40;;;;;;6306773;22;20034;-79
2023/05/10 23:13:03;;;;;;;31.30;5.78;;;18.60;85.30;;;;;;6306418;22;19999;-79
2023/05/10 23:15:31;;;;;;;26.38;5.13;;;18.60;85.40;;;;;;6305353;22;19999;-79
2023/05/10 23:17:59;;;;;;;32.95;5.50;;;18.60;85.50;;;;;;6306281;22;20020;-78
2023/05/10 23:20:26;;;;;;;23.52;5.22;;;18.60;85.40;;;;;;6306653;22;20001;-79
2023/05/10 23:22:52;;;;;;;26.92;5.15;;;18.60;85.60;;;;;;6306323;22;20019;-79
2023/05/10 23:25:18;;;;;;;30.20;6.13;;;18.60;85.60;;;;;;6306575;22;19996;-78
2023/05/10 23:27:43;;;;;;;28.98;5.88;;;18.60;85.30;;;;;;6306641;22;20009;-78
2023/05/10 23:30:10;;;;;;;22.27;4.95;;;18.60;85.30;;;;;;6306681;22;19995;-78
2023/05/10 23:32:36;;;;;;;30.45;5.60;;;18.60;85.60;;;;;;6309524;22;20006;-77
2023/05/10 23:35:01;;;;;;;24.77;5.57;;;18.60;85.40;;;;;;6307279;22;20007;-78
2023/05/10 23:37:27;;;;;;;25.77;5.38;;;18.60;85.40;;;;;;6306876;22;20100;-78
2023/05/10 23:39:53;;;;;;;26.38;5.85;;;18.60;85.40;;;;;;6306712;22;19999;-79
2023/05/10 23:42:18;;;;;;;25.58;5.18;;;18.60;85.60;;;;;;6306533;22;20007;-79
2023/05/10 23:44:45;;;;;;;24.58;5.22;;;18.60;85.60;;;;;;6306401;22;20026;-77
2023/05/10 23:47:11;;;;;;;24.95;5.43;;;18.60;85.50;;;;;;6306448;22;20328;-78
2023/05/10 23:49:37;;;;;;;21.30;5.03;;;18.60;85.80;;;;;;6306491;22;20006;-78
2023/05/10 23:52:03;;;;;;;18.50;5.70;;;18.50;85.90;;;;;;6306211;22;20014;-77
2023/05/10 23:54:28;;;;;;;18.77;4.47;;;18.50;86.10;;;;;;6306561;22;20022;-78
2023/05/10 23:56:54;;;;;;;28.75;5.88;;;18.50;86.30;;;;;;6306191;22;20413;-77
2023/05/10 23:59:20;;;;;;;30.45;5.75;;;18.40;86.50;;;;;;6306222;22;19999;-77
